Time;durP1;ratioP1;P1;durP2;ratioP2;P2;SDS_P1;SDS_P2;PMS_P1;PMS_P2;Temp;Humidity;BMP_temperature;BMP_pressure;BME280_temperature;BME280_humidity;BME280_pressure;Samples;Min_cycle;Max_cycle;Signal;HPM_P1;HPM_P2
2021/12/05 00:17:52;;;;;;;5.15;2.42;;;15.80;81.80;;;;;;1978038;29;20164;-92
2021/12/05 00:21:48;;;;;;;3.60;2.70;;;15.90;81.60;;;;;;1977731;29;20165;-92
2021/12/05 00:22:48;;;;;;;6.25;2.60;;;15.80;81.60;;;;;;1978217;29;20163;-95
2021/12/05 00:23:51;;;;;;;3.63;1.95;;;15.80;81.70;;;;;;1977696;29;20168;-92
2021/12/05 00:24:55;;;;;;;4.28;2.67;;;15.80;81.40;;;;;;1977240;29;20198;-89
2021/12/05 00:25:55;;;;;;;3.75;1.80;;;15.90;81.90;;;;;;1977309;29;20159;-93
2021/12/05 00:27:03;;;;;;;4.65;2.35;;;15.80;81.00;;;;;;1984089;29;20247;-92
2021/12/05 00:28:31;;;;;;;2.92;2.25;;;15.80;81.70;;;;;;1983318;29;20251;-94
2021/12/05 00:33:07;;;;;;;4.10;2.05;;;15.80;81.80;;;;;;1977538;29;20244;-94
2021/12/05 00:47:40;;;;;;;3.10;2.38;;;15.80;81.60;;;;;;1986796;29;20160;-90
2021/12/05 00:51:54;;;;;;;3.55;1.80;;;15.70;81.70;;;;;;1990168;29;20191;-89
2021/12/05 01:02:56;;;;;;;2.53;1.85;;;15.70;81.40;;;;;;1986187;29;20156;-92
2021/12/05 01:05:38;;;;;;;2.65;1.95;;;15.70;81.70;;;;;;1992899;28;20179;-91
2021/12/05 01:10:36;;;;;;;2.90;1.95;;;15.70;81.50;;;;;;1984665;28;20259;-93
2021/12/05 01:12:07;;;;;;;4.32;2.38;;;15.70;81.70;;;;;;1985151;29;20235;-93
2021/12/05 01:15:48;;;;;;;3.30;2.15;;;15.70;81.40;;;;;;1990675;29;20159;-87
2021/12/05 01:16:48;;;;;;;3.67;2.20;;;15.70;81.60;;;;;;1986458;29;20222;-91
2021/12/05 01:18:51;;;;;;;4.20;2.47;;;15.70;81.70;;;;;;1993766;28;20159;-92
2021/12/05 01:19:49;;;;;;;2.97;2.13;;;15.70;82.00;;;;;;1986329;29;20171;-92
2021/12/05 01:20:55;;;;;;;3.20;2.03;;;15.70;81.70;;;;;;1986045;29;20446;-90
2021/12/05 01:21:57;;;;;;;3.40;2.25;;;15.70;81.60;;;;;;1987289;28;20280;-91
2021/12/05 01:23:06;;;;;;;6.28;2.22;;;15.70;81.20;;;;;;1994766;28;20241;-91
2021/12/05 01:25:42;;;;;;;3.25;2.10;;;15.80;81.40;;;;;;1992768;28;20198;-90
2021/12/05 01:30:06;;;;;;;4.57;2.40;;;15.70;81.30;;;;;;1985743;29;20500;-93
2021/12/05 01:31:17;;;;;;;3.63;2.20;;;15.70;81.00;;;;;;1985716;29;20163;-92
2021/12/05 01:36:47;;;;;;;4.40;2.17;;;15.60;81.60;;;;;;1985570;29;20230;-93
2021/12/05 01:48:50;;;;;;;2.65;2.05;;;15.70;81.30;;;;;;1984406;29;20223;-94
2021/12/05 01:50:08;;;;;;;2.83;2.10;;;15.60;81.00;;;;;;1984156;29;20229;-91
2021/12/05 02:00:59;;;;;;;2.90;1.80;;;15.60;81.60;;;;;;1983742;29;20202;-92
2021/12/05 02:08:58;;;;;;;2.40;1.75;;;15.50;82.10;;;;;;1968513;29;20168;-93
2021/12/05 02:12:09;;;;;;;2.10;1.80;;;15.60;82.00;;;;;;1984776;29;20250;-93
2021/12/05 02:16:22;;;;;;;2.88;2.10;;;15.50;82.30;;;;;;1989386;29;20242;-84
2021/12/05 02:38:05;;;;;;;2.97;1.90;;;15.50;81.50;;;;;;1983175;29;20191;-93
2021/12/05 02:39:03;;;;;;;2.30;1.75;;;15.50;82.40;;;;;;1978835;29;20206;-93
2021/12/05 02:41:39;;;;;;;2.47;1.75;;;15.40;82.90;;;;;;1983757;29;20164;-90
2021/12/05 02:42:13;;;;;;;3.08;2.15;;;15.50;82.20;;;;;;1987092;28;20188;-90
2021/12/05 02:43:19;;;;;;;2.80;2.20;;;15.50;82.40;;;;;;1990838;28;20262;-92
2021/12/05 02:44:22;;;;;;;2.60;1.83;;;15.50;82.20;;;;;;1990857;28;20155;-92
2021/12/05 02:45:21;;;;;;;2.72;2.00;;;15.50;81.80;;;;;;1990757;28;20588;-91
2021/12/05 02:46:22;;;;;;;6.07;1.70;;;15.40;82.20;;;;;;1991009;28;20200;-92
2021/12/05 02:47:23;;;;;;;1.98;1.80;;;15.50;82.10;;;;;;1983861;28;20246;-91
2021/12/05 02:48:24;;;;;;;2.42;1.85;;;15.50;82.20;;;;;;1983199;29;20218;-92
2021/12/05 02:49:25;;;;;;;3.35;1.90;;;15.40;81.20;;;;;;1982778;29;20313;-89
2021/12/05 02:50:29;;;;;;;3.05;1.90;;;15.50;82.00;;;;;;1990162;28;20626;-92
2021/12/05 02:51:28;;;;;;;3.03;2.10;;;15.40;81.70;;;;;;1982498;29;20159;-92
2021/12/05 02:52:32;;;;;;;1.65;1.55;;;15.50;81.80;;;;;;1983558;29;20174;-90
2021/12/05 02:53:40;;;;;;;3.97;1.90;;;15.40;81.30;;;;;;1990996;28;20178;-91
2021/12/05 02:54:46;;;;;;;3.08;2.45;;;15.40;81.10;;;;;;1990986;28;20182;-94
2021/12/05 02:55:48;;;;;;;2.25;1.75;;;15.40;81.00;;;;;;1984415;29;20254;-92
2021/12/05 02:56:50;;;;;;;2.30;2.05;;;15.40;81.10;;;;;;1983459;29;20195;-90
2021/12/05 02:57:59;;;;;;;2.50;2.05;;;15.40;81.10;;;;;;1982980;29;20175;-91
2021/12/05 02:59:06;;;;;;;2.00;1.83;;;15.40;81.10;;;;;;1985743;29;20160;-86
2021/12/05 03:00:10;;;;;;;2.25;1.80;;;15.40;81.20;;;;;;1990879;29;20155;-79
2021/12/05 03:01:22;;;;;;;3.55;2.17;;;15.40;81.10;;;;;;1989723;29;20170;-89
2021/12/05 03:02:26;;;;;;;4.40;2.10;;;15.40;81.00;;;;;;1996745;28;20159;-86
2021/12/05 03:03:28;;;;;;;2.20;1.58;;;15.40;81.10;;;;;;1986280;28;20199;-91
2021/12/05 03:04:31;;;;;;;2.35;1.90;;;15.40;81.10;;;;;;1982866;29;20300;-93
2021/12/05 03:05:30;;;;;;;2.95;1.88;;;15.40;81.10;;;;;;1990645;28;20174;-92
2021/12/05 03:06:32;;;;;;;2.40;1.63;;;15.40;81.10;;;;;;1982522;29;20555;-91
2021/12/05 03:07:37;;;;;;;3.42;2.22;;;15.50;81.10;;;;;;1989709;28;20414;-90
2021/12/05 03:08:37;;;;;;;3.08;2.13;;;15.40;81.20;;;;;;1982062;29;20223;-92
2021/12/05 03:09:39;;;;;;;3.33;2.38;;;15.40;81.00;;;;;;1982725;29;20202;-91
2021/12/05 03:10:39;;;;;;;3.30;2.10;;;15.50;81.40;;;;;;1983488;28;20187;-90
2021/12/05 03:11:37;;;;;;;3.30;1.80;;;15.40;81.00;;;;;;1983032;29;20182;-92
2021/12/05 03:12:38;;;;;;;2.43;1.60;;;15.40;81.40;;;;;;1983720;29;20242;-93
2021/12/05 03:13:40;;;;;;;2.17;1.95;;;15.40;81.10;;;;;;1983521;29;20167;-92
2021/12/05 03:14:38;;;;;;;2.30;1.80;;;15.40;81.00;;;;;;1983687;29;20574;-92
2021/12/05 03:15:37;;;;;;;1.80;1.70;;;15.40;80.90;;;;;;1983859;29;20191;-88
2021/12/05 03:16:38;;;;;;;1.83;1.73;;;15.40;81.00;;;;;;1990912;28;20225;-91
2021/12/05 03:17:37;;;;;;;1.95;1.60;;;15.40;81.20;;;;;;1984683;28;20198;-91
2021/12/05 03:18:36;;;;;;;3.25;2.10;;;15.40;81.00;;;;;;1984234;29;20238;-92
2021/12/05 03:19:35;;;;;;;3.05;2.05;;;15.40;81.00;;;;;;1984617;28;20183;-90
2021/12/05 03:20:34;;;;;;;2.33;1.80;;;15.40;81.00;;;;;;1992621;28;20191;-89
2021/12/05 03:21:34;;;;;;;2.03;1.83;;;15.40;81.20;;;;;;1985035;29;20206;-90
2021/12/05 03:22:33;;;;;;;2.50;1.90;;;15.40;81.00;;;;;;1985061;29;20630;-89
2021/12/05 03:23:32;;;;;;;3.53;2.10;;;15.40;81.00;;;;;;1991468;28;20236;-92
2021/12/05 03:24:30;;;;;;;2.57;2.20;;;15.40;81.20;;;;;;1992127;28;20221;-91
2021/12/05 03:25:30;;;;;;;2.67;1.90;;;15.40;81.10;;;;;;1984371;29;20178;-90
2021/12/05 03:26:34;;;;;;;2.80;1.95;;;15.40;80.90;;;;;;1985445;29;20518;-89
2021/12/05 03:27:34;;;;;;;2.45;1.90;;;15.40;80.90;;;;;;1986972;28;20182;-90
2021/12/05 03:28:33;;;;;;;3.80;2.80;;;15.40;81.10;;;;;;1985290;29;20247;-89
2021/12/05 03:29:32;;;;;;;1.92;1.63;;;15.40;81.10;;;;;;1986865;29;20205;-88
2021/12/05 03:30:31;;;;;;;2.70;1.90;;;15.40;81.00;;;;;;1990116;29;20187;-89
2021/12/05 03:31:31;;;;;;;2.17;1.52;;;15.40;81.10;;;;;;1990578;29;20175;-87
2021/12/05 03:32:30;;;;;;;5.60;1.52;;;15.40;81.20;;;;;;1990510;29;20178;-89
2021/12/05 03:33:28;;;;;;;2.60;2.27;;;15.40;81.20;;;;;;1990685;29;20191;-87
2021/12/05 03:34:28;;;;;;;4.00;2.00;;;15.40;81.30;;;;;;1990497;29;20193;-87
2021/12/05 03:35:28;;;;;;;2.55;1.52;;;15.40;81.20;;;;;;1990757;29;20183;-87
2021/12/05 03:36:28;;;;;;;2.95;2.08;;;15.40;81.20;;;;;;1990444;29;20796;-87
2021/12/05 03:37:27;;;;;;;2.40;1.60;;;15.40;81.20;;;;;;1992512;28;20210;-90
2021/12/05 03:38:26;;;;;;;2.13;1.90;;;15.40;81.20;;;;;;1992758;28;20213;-92
2021/12/05 03:39:25;;;;;;;2.00;1.80;;;15.40;81.30;;;;;;1985799;28;20439;-92
2021/12/05 03:40:28;;;;;;;2.60;1.70;;;15.40;81.20;;;;;;1986338;29;20179;-90
2021/12/05 03:41:27;;;;;;;1.90;1.70;;;15.40;81.00;;;;;;1985741;28;20647;-89
2021/12/05 03:42:26;;;;;;;3.40;2.40;;;15.60;81.40;;;;;;1986321;29;20179;-93
2021/12/05 03:43:24;;;;;;;3.33;1.87;;;15.40;81.40;;;;;;1985772;29;20239;-93
2021/12/05 03:44:28;;;;;;;2.47;1.87;;;15.40;81.20;;;;;;1986568;29;20175;-83
2021/12/05 03:45:32;;;;;;;2.70;1.98;;;15.40;81.30;;;;;;1992218;28;20175;-82
2021/12/05 03:46:32;;;;;;;2.35;2.00;;;15.40;81.40;;;;;;1991887;28;20210;-80
2021/12/05 03:47:31;;;;;;;2.53;1.90;;;15.40;81.40;;;;;;1991863;28;20187;-81
2021/12/05 03:48:35;;;;;;;2.80;2.10;;;15.40;81.30;;;;;;1998493;28;20226;-91
2021/12/05 03:49:35;;;;;;;4.63;2.35;;;15.40;81.40;;;;;;1985376;28;20526;-89
2021/12/05 03:50:35;;;;;;;2.20;2.00;;;15.40;81.40;;;;;;1984444;29;20257;-93
2021/12/05 03:51:37;;;;;;;3.25;2.30;;;15.40;81.60;;;;;;1984853;29;20218;-90
2021/12/05 03:52:37;;;;;;;3.28;1.95;;;15.30;81.90;;;;;;1984859;29;20199;-92
2021/12/05 03:53:37;;;;;;;4.32;2.30;;;15.30;82.00;;;;;;1985367;29;20168;-91
2021/12/05 03:54:37;;;;;;;3.90;2.03;;;15.40;81.80;;;;;;1985263;29;20205;-93
2021/12/05 03:55:37;;;;;;;4.00;2.17;;;15.30;81.70;;;;;;1985323;29;20179;-93
2021/12/05 03:56:37;;;;;;;2.30;1.65;;;15.40;81.70;;;;;;1985784;29;20330;-92
2021/12/05 03:57:35;;;;;;;2.22;2.03;;;15.30;81.60;;;;;;1985342;29;20172;-92
2021/12/05 03:58:36;;;;;;;2.37;1.73;;;15.30;81.50;;;;;;1985665;29;20270;-91
2021/12/05 03:59:36;;;;;;;3.15;2.25;;;15.30;81.60;;;;;;1985190;29;20179;-94
2021/12/05 04:00:38;;;;;;;3.53;1.77;;;15.40;81.60;;;;;;1984789;29;20187;-93
2021/12/05 04:01:38;;;;;;;3.28;1.65;;;15.30;81.70;;;;;;1985291;29;20174;-91
2021/12/05 04:02:37;;;;;;;2.40;2.08;;;15.30;81.80;;;;;;1985387;29;20179;-92
2021/12/05 04:03:37;;;;;;;2.60;1.80;;;15.30;81.90;;;;;;1986350;29;20193;-93
2021/12/05 04:04:36;;;;;;;2.78;2.03;;;15.30;81.50;;;;;;1986015;29;20186;-92
2021/12/05 04:05:35;;;;;;;3.17;2.10;;;15.30;81.90;;;;;;1985661;29;20183;-93
2021/12/05 04:06:34;;;;;;;2.88;2.00;;;15.30;81.90;;;;;;1986211;29;20675;-93
2021/12/05 04:07:33;;;;;;;2.27;1.80;;;15.30;81.90;;;;;;1994124;28;20185;-93
2021/12/05 04:08:31;;;;;;;2.23;1.90;;;15.30;81.70;;;;;;1994229;28;20174;-90
2021/12/05 04:09:31;;;;;;;2.13;1.70;;;15.30;81.80;;;;;;1986370;28;20258;-91
2021/12/05 04:10:30;;;;;;;2.42;2.15;;;15.30;81.80;;;;;;1985800;29;20163;-92
2021/12/05 04:11:36;;;;;;;4.40;2.60;;;15.30;81.70;;;;;;1985906;29;20622;-91
2021/12/05 04:12:35;;;;;;;2.63;1.90;;;15.30;81.70;;;;;;1984781;29;20510;-90
2021/12/05 04:13:34;;;;;;;3.87;2.67;;;15.30;81.70;;;;;;1983787;29;20167;-91
2021/12/05 04:14:52;;;;;;;2.10;1.70;;;15.30;82.00;;;;;;1990936;28;20738;-91
2021/12/05 04:15:54;;;;;;;3.22;2.28;;;15.30;81.80;;;;;;1989982;28;20398;-91
2021/12/05 04:16:53;;;;;;;2.38;1.85;;;15.30;81.70;;;;;;1992003;28;20181;-91
2021/12/05 04:17:52;;;;;;;2.08;1.70;;;15.30;81.90;;;;;;1992128;28;20258;-93
2021/12/05 04:18:51;;;;;;;2.97;2.00;;;15.30;81.90;;;;;;1984864;28;20262;-92
2021/12/05 04:19:50;;;;;;;2.60;2.30;;;15.30;81.80;;;;;;1984886;29;20572;-93
2021/12/05 04:20:51;;;;;;;3.58;2.33;;;15.30;81.90;;;;;;1985032;29;20174;-90
2021/12/05 04:21:50;;;;;;;2.22;1.85;;;15.30;82.00;;;;;;1984487;29;20213;-92
2021/12/05 04:22:49;;;;;;;2.87;1.70;;;15.30;82.00;;;;;;1984514;29;20179;-92
2021/12/05 04:23:48;;;;;;;2.40;1.88;;;15.30;82.00;;;;;;1984463;29;20410;-93
2021/12/05 04:24:47;;;;;;;2.60;2.37;;;15.30;82.30;;;;;;1984358;29;20266;-92
2021/12/05 04:25:48;;;;;;;4.10;1.90;;;15.20;81.90;;;;;;1984808;29;20403;-92
2021/12/05 04:26:47;;;;;;;2.10;1.90;;;15.30;81.90;;;;;;1985070;29;20461;-90
2021/12/05 04:27:48;;;;;;;2.83;2.00;;;15.30;82.10;;;;;;1985367;29;20184;-94
2021/12/05 04:28:47;;;;;;;2.63;2.22;;;15.30;82.10;;;;;;1984954;29;20411;-92
2021/12/05 04:29:46;;;;;;;2.65;1.80;;;15.30;82.20;;;;;;1984979;29;20243;-94
2021/12/05 04:30:44;;;;;;;2.00;1.73;;;15.30;81.90;;;;;;1983796;28;20195;-93
2021/12/05 04:31:43;;;;;;;2.73;1.80;;;15.20;82.20;;;;;;1984317;29;20246;-91
2021/12/05 04:32:42;;;;;;;3.03;1.90;;;15.20;82.10;;;;;;1985045;29;20213;-92
2021/12/05 04:33:40;;;;;;;2.37;2.10;;;15.20;82.40;;;;;;1984651;29;20171;-91
2021/12/05 04:34:39;;;;;;;2.47;2.10;;;15.30;82.40;;;;;;1984827;29;20175;-91
2021/12/05 04:35:38;;;;;;;1.87;1.77;;;15.30;82.20;;;;;;1984796;29;20584;-94
2021/12/05 04:36:38;;;;;;;3.65;2.25;;;15.30;83.00;;;;;;1984223;29;20187;-92
2021/12/05 04:37:37;;;;;;;2.53;1.90;;;15.30;82.40;;;;;;1984416;29;20175;-95
2021/12/05 04:38:36;;;;;;;2.20;1.97;;;15.30;82.40;;;;;;1984183;29;20202;-93
2021/12/05 04:39:34;;;;;;;2.30;2.07;;;15.30;82.60;;;;;;1985999;29;20419;-89
2021/12/05 04:40:33;;;;;;;3.60;2.50;;;15.30;83.00;;;;;;1988958;29;20226;-88
2021/12/05 04:41:32;;;;;;;3.40;1.97;;;15.30;82.50;;;;;;1985603;29;20171;-90
2021/12/05 04:42:31;;;;;;;3.87;2.13;;;15.20;82.60;;;;;;1983848;29;20427;-93
2021/12/05 04:43:38;;;;;;;2.17;1.97;;;15.20;82.90;;;;;;1983552;29;20435;-91
2021/12/05 04:44:36;;;;;;;2.67;1.92;;;15.20;82.40;;;;;;1982963;29;20171;-91
2021/12/05 04:45:37;;;;;;;2.83;2.10;;;15.20;82.20;;;;;;1982749;29;20182;-92
2021/12/05 04:46:35;;;;;;;2.47;2.28;;;15.20;82.50;;;;;;1983418;29;20258;-90
2021/12/05 04:47:34;;;;;;;3.13;2.13;;;15.20;82.40;;;;;;1983709;29;20588;-90
2021/12/05 04:48:33;;;;;;;2.50;2.10;;;15.40;82.50;;;;;;1983202;29;20230;-91
2021/12/05 04:49:31;;;;;;;3.20;2.00;;;15.20;82.30;;;;;;1982299;29;20301;-89
2021/12/05 04:50:31;;;;;;;2.57;2.07;;;15.20;82.30;;;;;;1982787;29;20183;-89
2021/12/05 04:51:35;;;;;;;3.08;2.00;;;15.20;82.30;;;;;;1983618;29;20246;-90
2021/12/05 04:52:34;;;;;;;2.35;2.15;;;15.20;82.30;;;;;;1983277;29;20171;-92
2021/12/05 04:53:32;;;;;;;3.40;2.10;;;15.20;82.10;;;;;;1991216;28;20178;-89
2021/12/05 04:54:31;;;;;;;2.70;2.23;;;15.20;82.40;;;;;;1990436;28;20661;-88
2021/12/05 04:55:30;;;;;;;3.00;2.13;;;15.20;82.60;;;;;;1984186;28;20175;-91
2021/12/05 04:56:29;;;;;;;2.83;2.10;;;15.20;82.40;;;;;;1983484;29;20468;-90
2021/12/05 04:57:28;;;;;;;2.30;2.10;;;15.20;82.40;;;;;;1983859;29;20183;-90
2021/12/05 04:58:26;;;;;;;1.93;1.73;;;15.20;82.40;;;;;;1983278;29;20194;-93
2021/12/05 04:59:27;;;;;;;2.73;1.90;;;15.20;82.40;;;;;;1983497;29;20226;-89
2021/12/05 05:00:29;;;;;;;3.22;2.30;;;15.20;82.60;;;;;;1990701;28;20213;-92
2021/12/05 05:01:27;;;;;;;2.50;2.20;;;15.20;82.50;;;;;;1983406;29;20194;-89
2021/12/05 05:02:27;;;;;;;3.30;2.27;;;15.20;82.60;;;;;;1984185;29;20182;-94
2021/12/05 05:03:27;;;;;;;5.40;2.25;;;15.20;83.20;;;;;;1983630;29;20187;-90
2021/12/05 05:04:29;;;;;;;4.00;2.67;;;15.20;83.20;;;;;;1990875;28;20178;-91
2021/12/05 05:05:28;;;;;;;3.53;2.50;;;15.20;82.90;;;;;;1990926;28;20233;-90
2021/12/05 05:06:27;;;;;;;5.95;2.40;;;15.20;82.60;;;;;;1983018;28;20211;-89
2021/12/05 05:07:28;;;;;;;3.77;2.50;;;15.20;82.80;;;;;;1984051;29;20187;-93
2021/12/05 05:08:30;;;;;;;2.80;2.00;;;15.20;82.80;;;;;;1983599;28;20222;-91
2021/12/05 05:09:29;;;;;;;3.33;2.10;;;15.20;82.70;;;;;;1983316;29;20274;-91
2021/12/05 05:10:30;;;;;;;4.00;2.40;;;15.20;82.70;;;;;;1991230;28;20198;-91
2021/12/05 05:11:29;;;;;;;2.58;2.20;;;15.20;82.60;;;;;;1984443;28;20498;-93
2021/12/05 05:12:27;;;;;;;2.53;2.10;;;15.10;82.60;;;;;;1984772;29;20194;-92
2021/12/05 05:13:26;;;;;;;3.10;2.40;;;15.10;83.10;;;;;;1984818;29;20179;-91
2021/12/05 05:14:26;;;;;;;2.97;2.47;;;15.20;83.20;;;;;;1985062;29;20175;-93
2021/12/05 05:15:27;;;;;;;3.72;2.45;;;15.10;83.40;;;;;;1985038;29;20603;-93
2021/12/05 05:16:26;;;;;;;3.47;2.30;;;15.10;83.50;;;;;;1988609;28;20191;-85
2021/12/05 05:17:25;;;;;;;3.10;2.40;;;15.20;83.70;;;;;;1998945;28;20270;-90
2021/12/05 05:18:29;;;;;;;2.92;2.33;;;15.10;83.20;;;;;;1991608;28;20198;-81
2021/12/05 05:19:35;;;;;;;3.85;2.58;;;15.10;83.50;;;;;;1991590;28;20154;-80
2021/12/05 05:21:57;;;;;;;3.65;2.08;;;15.40;83.60;;;;;;1986208;28;20194;-90
2021/12/05 05:25:11;;;;;;;2.38;2.15;;;15.10;83.20;;;;;;1976902;29;20192;-93
2021/12/05 05:26:29;;;;;;;4.43;2.20;;;15.10;83.60;;;;;;1976866;28;20647;-92
2021/12/05 05:29:05;;;;;;;2.30;2.08;;;15.10;83.80;;;;;;1985670;29;20159;-92
2021/12/05 05:30:27;;;;;;;3.15;2.58;;;15.00;83.20;;;;;;1986677;29;20186;-93
2021/12/05 05:46:13;;;;;;;2.88;2.55;;;15.10;84.10;;;;;;1987143;29;20167;-91
2021/12/05 05:48:36;;;;;;;2.40;2.20;;;15.10;84.00;;;;;;1987213;29;20286;-90
2021/12/05 05:50:35;;;;;;;2.22;2.03;;;15.00;83.70;;;;;;1986585;28;20185;-90
2021/12/05 05:51:33;;;;;;;2.40;2.20;;;15.00;83.80;;;;;;1986203;29;20186;-90
2021/12/05 05:52:32;;;;;;;4.80;2.87;;;15.10;83.90;;;;;;1986084;29;20654;-91
2021/12/05 05:53:31;;;;;;;2.85;2.45;;;15.00;84.20;;;;;;1985381;29;20175;-93
2021/12/05 05:54:30;;;;;;;3.10;2.40;;;15.10;84.00;;;;;;1985917;29;20233;-92
2021/12/05 05:55:28;;;;;;;2.53;2.33;;;15.00;84.10;;;;;;1985907;29;20182;-91
2021/12/05 05:56:29;;;;;;;3.10;2.10;;;15.00;83.90;;;;;;1985693;29;20191;-91
2021/12/05 05:57:38;;;;;;;2.85;2.20;;;15.00;83.80;;;;;;1985650;29;20202;-92
2021/12/05 05:58:49;;;;;;;2.25;1.95;;;15.00;83.80;;;;;;1992658;28;20229;-92
2021/12/05 06:00:13;;;;;;;3.13;2.30;;;15.00;83.50;;;;;;1991440;28;20189;-89
2021/12/05 06:01:17;;;;;;;2.40;2.20;;;15.00;83.60;;;;;;1985542;29;20184;-91
2021/12/05 06:04:20;;;;;;;2.15;1.73;;;15.00;83.90;;;;;;1990229;28;20226;-88
2021/12/05 06:05:19;;;;;;;3.83;2.72;;;15.00;84.40;;;;;;1990230;29;20206;-86
2021/12/05 06:06:18;;;;;;;2.90;2.50;;;15.00;84.10;;;;;;1988748;28;20231;-91
2021/12/05 06:07:16;;;;;;;2.53;2.15;;;15.00;84.00;;;;;;1991426;28;20182;-90
2021/12/05 06:08:15;;;;;;;3.80;2.30;;;15.00;83.80;;;;;;1992744;28;20188;-92
2021/12/05 06:09:13;;;;;;;5.07;2.40;;;15.00;83.80;;;;;;1985424;28;20703;-94
2021/12/05 06:10:16;;;;;;;4.20;2.60;;;15.00;84.10;;;;;;1987770;29;20409;-90
2021/12/05 06:11:27;;;;;;;3.42;2.75;;;15.00;83.70;;;;;;1988623;29;20198;-88
2021/12/05 06:12:28;;;;;;;3.47;2.65;;;15.00;84.70;;;;;;1988618;29;20155;-90
2021/12/05 06:13:33;;;;;;;3.00;2.38;;;15.00;84.10;;;;;;1991802;28;20191;-92
2021/12/05 06:16:13;;;;;;;2.20;2.00;;;15.00;84.40;;;;;;1988651;29;20159;-92
2021/12/05 06:17:21;;;;;;;2.78;2.30;;;15.00;84.90;;;;;;1991203;29;20144;-92
2021/12/05 06:18:21;;;;;;;2.30;2.08;;;15.00;85.30;;;;;;1985135;29;20186;-90
2021/12/05 06:19:19;;;;;;;3.72;3.00;;;15.00;85.20;;;;;;1985107;29;20186;-91
2021/12/05 06:20:22;;;;;;;2.30;2.00;;;15.00;85.30;;;;;;1985227;29;20642;-91
2021/12/05 06:21:20;;;;;;;2.95;2.42;;;15.00;85.20;;;;;;1983897;29;20223;-89
2021/12/05 06:22:19;;;;;;;3.20;2.40;;;15.00;85.20;;;;;;1987189;29;20213;-86
2021/12/05 06:23:17;;;;;;;2.33;1.90;;;15.00;85.20;;;;;;1997208;28;20178;-83
2021/12/05 06:24:16;;;;;;;3.13;2.20;;;15.00;84.90;;;;;;1997816;28;20185;-87
2021/12/05 06:25:20;;;;;;;2.90;2.50;;;15.00;84.70;;;;;;1990771;28;20230;-88
2021/12/05 06:26:23;;;;;;;3.08;2.65;;;15.00;84.60;;;;;;1990263;29;20251;-88
2021/12/05 06:27:21;;;;;;;2.80;2.42;;;15.00;84.60;;;;;;1989149;29;20191;-86
2021/12/05 06:28:32;;;;;;;2.90;2.27;;;15.00;84.60;;;;;;1989029;29;20199;-89
2021/12/05 06:29:36;;;;;;;4.55;2.55;;;15.00;84.50;;;;;;1987390;28;20195;-91
2021/12/05 06:38:06;;;;;;;3.08;2.53;;;15.00;84.50;;;;;;1983459;29;20648;-92
2021/12/05 06:39:25;;;;;;;2.72;2.20;;;15.20;84.70;;;;;;1983425;29;20198;-93
2021/12/05 06:40:38;;;;;;;2.83;2.00;;;15.00;84.50;;;;;;1990595;28;20166;-91
2021/12/05 06:43:01;;;;;;;2.30;2.10;;;14.90;84.90;;;;;;1983328;29;20184;-91
2021/12/05 06:46:31;;;;;;;2.88;2.28;;;15.00;85.30;;;;;;1983068;29;20662;-93
2021/12/05 06:47:34;;;;;;;3.25;2.33;;;15.00;84.90;;;;;;1983515;29;20168;-90
2021/12/05 06:48:33;;;;;;;2.23;2.00;;;14.90;85.50;;;;;;1986405;28;20234;-88
2021/12/05 06:49:31;;;;;;;2.70;1.90;;;14.90;84.90;;;;;;1988841;29;20300;-89
2021/12/05 06:50:30;;;;;;;3.07;2.17;;;15.00;84.90;;;;;;1989765;28;20175;-89
2021/12/05 06:51:30;;;;;;;2.50;2.30;;;14.90;84.80;;;;;;1989329;29;20183;-88
2021/12/05 06:52:29;;;;;;;3.70;2.45;;;15.10;85.00;;;;;;1986480;29;20167;-93
2021/12/05 06:53:27;;;;;;;3.57;2.47;;;14.90;84.80;;;;;;1984883;29;20182;-92
2021/12/05 06:54:26;;;;;;;2.30;2.00;;;14.90;84.80;;;;;;1984470;28;20179;-95
2021/12/05 06:55:25;;;;;;;2.90;2.33;;;14.90;84.90;;;;;;1984595;29;20167;-91
2021/12/05 06:56:24;;;;;;;3.20;2.40;;;15.00;85.00;;;;;;1984363;29;20259;-90
2021/12/05 06:57:23;;;;;;;2.67;2.30;;;14.90;85.20;;;;;;1984331;29;20254;-94
2021/12/05 06:58:21;;;;;;;3.80;2.33;;;14.90;85.30;;;;;;1983929;29;20234;-90
2021/12/05 06:59:20;;;;;;;3.03;2.20;;;14.90;85.10;;;;;;1983929;29;20638;-93
2021/12/05 07:00:23;;;;;;;3.17;2.20;;;14.90;85.10;;;;;;1983906;29;20186;-93
2021/12/05 07:01:22;;;;;;;2.45;2.05;;;14.90;85.00;;;;;;1983599;29;20183;-91
2021/12/05 07:02:21;;;;;;;2.35;2.13;;;14.90;85.30;;;;;;1983952;29;20649;-92
2021/12/05 07:03:20;;;;;;;1.97;1.87;;;14.90;85.10;;;;;;1984090;28;20171;-92
2021/12/05 07:04:44;;;;;;;2.73;2.50;;;14.90;84.90;;;;;;1983874;29;20442;-91
2021/12/05 07:06:54;;;;;;;2.60;2.20;;;14.90;85.40;;;;;;1983753;29;20618;-92
2021/12/05 07:07:53;;;;;;;2.43;2.13;;;14.80;85.20;;;;;;1982856;29;20155;-91
2021/12/05 07:08:59;;;;;;;3.43;2.40;;;14.90;85.50;;;;;;1982552;29;20262;-92
2021/12/05 07:09:57;;;;;;;3.05;2.50;;;14.90;85.90;;;;;;1982992;28;20210;-90
2021/12/05 07:11:10;;;;;;;2.40;1.90;;;14.90;86.10;;;;;;1990339;28;20662;-93
2021/12/05 07:14:06;;;;;;;2.60;2.00;;;14.90;86.40;;;;;;1982874;29;20705;-90
2021/12/05 07:14:39;;;;;;;3.38;2.28;;;14.90;85.90;;;;;;1983027;28;20266;-93
2021/12/05 07:15:57;;;;;;;4.40;2.20;;;14.90;85.70;;;;;;1984229;29;20171;-91
2021/12/05 07:17:08;;;;;;;4.50;2.10;;;14.90;85.70;;;;;;1983650;29;20163;-92
2021/12/05 07:19:35;;;;;;;2.63;2.35;;;14.90;86.00;;;;;;1983914;29;20194;-91
2021/12/05 07:20:56;;;;;;;2.97;2.45;;;14.80;85.70;;;;;;1983573;29;20171;-90
2021/12/05 07:21:58;;;;;;;2.75;2.20;;;14.90;85.90;;;;;;1984744;28;20218;-91
2021/12/05 07:25:52;;;;;;;1.80;1.60;;;14.90;86.10;;;;;;1983486;29;20221;-92
2021/12/05 07:40:47;;;;;;;3.33;2.30;;;14.80;86.10;;;;;;1983581;29;20172;-92
2021/12/05 07:41:53;;;;;;;2.27;1.90;;;14.80;86.40;;;;;;1983663;29;20163;-94
2021/12/05 07:42:54;;;;;;;2.50;2.30;;;14.80;86.50;;;;;;1989948;28;20413;-91
2021/12/05 07:43:53;;;;;;;4.18;2.80;;;14.80;87.40;;;;;;1990503;28;20178;-92
2021/12/05 07:44:53;;;;;;;2.63;2.23;;;14.80;87.80;;;;;;1983060;28;20618;-90
2021/12/05 07:45:56;;;;;;;2.30;1.98;;;14.80;89.00;;;;;;1983456;29;20171;-90
2021/12/05 07:46:55;;;;;;;3.53;2.63;;;14.80;86.00;;;;;;1982824;29;20194;-90
2021/12/05 07:47:55;;;;;;;3.20;2.20;;;14.80;85.40;;;;;;1982705;29;20171;-92
2021/12/05 07:48:53;;;;;;;2.38;2.17;;;14.90;85.40;;;;;;1983134;29;20160;-89
2021/12/05 07:49:53;;;;;;;4.60;2.40;;;14.90;85.50;;;;;;1982542;29;20255;-92
2021/12/05 07:52:01;;;;;;;2.85;2.40;;;15.00;85.60;;;;;;1982718;29;20267;-90
2021/12/05 07:53:07;;;;;;;4.18;2.15;;;15.00;85.90;;;;;;1983723;29;20227;-90
2021/12/05 07:54:25;;;;;;;3.00;2.47;;;15.00;86.20;;;;;;1983074;29;20175;-90
2021/12/05 07:55:30;;;;;;;2.63;2.40;;;15.10;86.60;;;;;;1984018;29;20175;-91
2021/12/05 07:56:40;;;;;;;3.15;2.40;;;14.90;87.10;;;;;;1985460;28;20282;-90
2021/12/05 07:58:09;;;;;;;2.30;1.85;;;14.90;88.10;;;;;;1991163;28;20163;-91
2021/12/05 08:00:13;;;;;;;2.60;2.10;;;14.90;85.50;;;;;;1984451;29;20630;-91
2021/12/05 08:14:25;;;;;;;3.33;2.65;;;14.90;91.30;;;;;;1991110;28;20191;-80
2021/12/05 08:14:37;;;;;;;3.60;2.45;;;14.90;85.00;;;;;;1990480;29;20159;-90
2021/12/05 08:15:44;;;;;;;2.80;2.55;;;14.90;84.90;;;;;;1989939;29;20151;-87
2021/12/05 08:16:47;;;;;;;3.60;2.50;;;14.90;85.00;;;;;;1991857;28;20199;-83
2021/12/05 08:17:53;;;;;;;4.40;2.75;;;15.00;85.20;;;;;;1991571;28;20156;-81
2021/12/05 08:18:52;;;;;;;4.60;2.40;;;15.00;85.60;;;;;;1991829;28;20226;-84
2021/12/05 08:19:51;;;;;;;4.60;2.53;;;14.90;85.90;;;;;;1999268;28;20171;-80
2021/12/05 08:20:49;;;;;;;2.87;2.23;;;15.00;88.60;;;;;;1992060;28;20163;-82
2021/12/05 08:21:55;;;;;;;2.70;2.17;;;15.00;83.10;;;;;;1991194;28;20183;-88
2021/12/05 08:22:54;;;;;;;2.85;2.05;;;14.90;82.90;;;;;;1991660;28;20156;-88
2021/12/05 08:23:53;;;;;;;2.38;1.95;;;15.00;82.70;;;;;;1987728;29;20179;-93
2021/12/05 08:24:52;;;;;;;3.63;2.43;;;15.00;82.40;;;;;;1985663;29;20183;-90
2021/12/05 08:26:18;;;;;;;4.23;2.47;;;15.00;82.40;;;;;;1985742;29;20231;-91
2021/12/05 08:27:13;;;;;;;3.88;2.03;;;15.00;82.30;;;;;;1985692;28;20194;-90
2021/12/05 08:28:49;;;;;;;4.22;2.58;;;14.90;82.10;;;;;;1985783;29;20206;-92
2021/12/05 08:29:53;;;;;;;2.92;2.40;;;15.00;82.40;;;;;;1985707;29;20207;-91
2021/12/05 08:31:06;;;;;;;4.72;2.20;;;14.90;82.40;;;;;;1985930;29;20174;-90
2021/12/05 08:32:23;;;;;;;3.30;2.47;;;15.00;82.80;;;;;;1992974;28;20234;-91
2021/12/05 08:33:48;;;;;;;4.07;2.45;;;15.00;82.50;;;;;;1991538;28;20166;-90
2021/12/05 08:41:12;;;;;;;4.40;2.80;;;15.00;82.80;;;;;;1985157;29;20185;-92
2021/12/05 08:43:44;;;;;;;2.42;1.98;;;15.10;83.00;;;;;;1985906;29;20160;-89
2021/12/05 09:08:37;;;;;;;2.55;2.08;;;15.00;83.30;;;;;;1988437;29;20167;-91
2021/12/05 09:19:28;;;;;;;2.05;1.95;;;15.20;83.90;;;;;;1991982;28;20171;-81
2021/12/05 09:24:43;;;;;;;2.10;1.90;;;15.10;84.90;;;;;;1990165;29;20163;-88
2021/12/05 10:01:48;;;;;;;2.70;2.40;;;15.10;86.20;;;;;;1983860;29;20199;-93
2021/12/05 10:02:44;;;;;;;3.28;2.38;;;15.10;85.80;;;;;;1984183;29;20156;-93